OIHH  Hamadan Airport

Add Bookmark

Hamadan, Iran

Status IATA
Operational HDM
Latitude Longitude
34° 52' 9" N 48° 33' 9" E
34.869202 48.552502
Local (DST + 5) UTC (GMT + 4)
Sep 2, 2014 10:06 Sep 2, 2014 17:36
Sunrise-Sunset Local UTC
Begin Civil Twilight 06:22 01:52
Sunrise 06:48 02:18
Sunset 07:42 15:12
End Civil Twilight 08:08 15:38

Current Weather

METAR Observed VFR
OIHH 021652Z 15010KT 9999 FEW040 27/M00 Q1017 Tue, Sep 2, 2014 @ 16:52 UTC
(44 Minutes ago)
Visual Flight Rules
Wind Visibility Clouds Conditions
150° at 10 knots (19 kph) 10 km or more
  • Few at 4,000' AGL
  • No significant weather
Temperatures Readings Precipitation
Current Temp 27°C (81°F)
Dewpoint 0°C (32°F)
Humidity 17%
Altimeter 30.03"Hg
Sea Level Pressure 1017mb
Field Elevation 5764.44'
None Recorded

Additional weather within a 92.6km radius of OIHH

Map ICAO Location
OIHM 69.5km S (160°)

24 Hour Weather History

Loading
-

24 Hour Weather Graphs

Loading
-

CheckWX.com is intended as a tool to help pilots better visualize weather data. It is not intended as a substitute for an official weather briefing obtained from a Flight Service Station. CheckWX.com does not meet the FAA requirements for an official pre-flight weather briefing. Therefore, it's important that pilots still call and obtain an official FSS pre-flight weather briefing.